»·PEaware :: SWA297 KLAS-KDEN

SWA297 :: KLAS-KDEN

FLIGHT INFORMATION

Flight Status: Arrived
Operator:
Southwest Airlines
More flights by this operator :: More flights under this callsign
Pilot: Ben F. (2808)
Aircraft: BOEING 737-800
(B738)
More flights by this aircraft type
Origin: KLAS Harry Reid Intl
United States
Destination: KDEN Denver Intl
United States
More flights between these airports :: More routes between these airports
Route: TRALR7 DVC WOLLF TELLR2
File this flight plan on PilotEdge
Remarks: PBN / A1B1C1D1S1S2 NAV / RNVD1E2A1 REG / N501EA EET / KZDV0027 RMK / SIMBRIEF
Altitude:
(Current/Filed)
37,000ft
Speed:
(Current/Filed)
439kts
Departed: 02-Mar-17 09:40 AM
Arrived: 02-Mar-17 11:05 AM
Distance/Time
Traveled:
545nm/1:25
Distance/Time
To Go:
Arrived

Flight Plot

Page will automatically refresh every two minutes.


Map Options




Map Legend


Flown Route
Filed Route
Departure Airport
Arrival Airport
Navaid (VOR, NDB)
Fix

Horizontal Profiles

Position Reports

Time Latitude Longitude Heading Altitude Ground
Speed
02-Mar-17 09:20 36.079559 -115.146220 354 2188ft 0kts
02-Mar-17 09:21 36.079559 -115.146220 354 2189ft 0kts
02-Mar-17 09:22 36.079559 -115.146220 354 2189ft 0kts
02-Mar-17 09:23 36.079559 -115.146220 354 2189ft 0kts
02-Mar-17 09:24 36.079559 -115.146220 354 2189ft 0kts
02-Mar-17 09:25 36.079559 -115.146220 354 2189ft 0kts
02-Mar-17 09:26 36.079559 -115.146220 354 2189ft 0kts
02-Mar-17 09:27 36.079559 -115.146220 354 2189ft 0kts
02-Mar-17 09:28 36.079559 -115.146220 354 2189ft 0kts
02-Mar-17 09:29 36.079559 -115.146220 354 2189ft 0kts
02-Mar-17 09:30 36.079128 -115.146174 354 2189ft 0kts
02-Mar-17 09:31 36.079128 -115.146174 354 2189ft 0kts
02-Mar-17 09:32 36.079395 -115.145453 76 2189ft 4kts
02-Mar-17 09:33 36.078938 -115.144866 175 2189ft 0kts
02-Mar-17 09:34 36.078938 -115.144866 175 2189ft 0kts
02-Mar-17 09:35 36.078938 -115.144866 175 2189ft 0kts
02-Mar-17 09:36 36.078296 -115.140805 91 2189ft 19kts
02-Mar-17 09:37 36.078280 -115.134905 89 2189ft 19kts
02-Mar-17 09:38 36.078283 -115.128660 88 2189ft 15kts
02-Mar-17 09:39 36.078214 -115.122638 121 2189ft 14kts
02-Mar-17 09:40 36.077005 -115.121263 180 2189ft 14kts
02-Mar-17 09:41 36.076304 -115.148002 269 2454ft 166kts
02-Mar-17 09:42 36.075837 -115.211290 272 4810ft 220kts
02-Mar-17 09:43 36.037207 -115.276255 195 6837ft 280kts
02-Mar-17 09:44 35.961052 -115.296032 171 7194ft 286kts
02-Mar-17 09:45 35.884823 -115.266302 143 10651ft 295kts
02-Mar-17 09:46 35.864919 -115.166123 79 12375ft 352kts
02-Mar-17 09:47 35.876973 -115.043684 65 15194ft 370kts
02-Mar-17 09:48 35.926907 -114.929959 59 17842ft 385kts
02-Mar-17 09:49 35.977390 -114.810058 62 20213ft 403kts
02-Mar-17 09:50 36.026026 -114.682230 62 22368ft 417kts
02-Mar-17 09:51 36.076782 -114.550675 61 24268ft 431kts
02-Mar-17 09:52 36.128870 -114.415002 61 25983ft 443kts
02-Mar-17 09:53 36.181342 -114.275006 65 27514ft 455kts
02-Mar-17 09:54 36.209162 -114.119788 79 28848ft 470kts
02-Mar-17 09:55 36.227755 -113.957637 79 30125ft 477kts
02-Mar-17 09:56 36.246627 -113.795398 79 31585ft 476kts
02-Mar-17 09:57 36.265709 -113.633157 79 32923ft 476kts
02-Mar-17 09:58 36.284583 -113.470940 79 34195ft 476kts
02-Mar-17 09:59 36.302860 -113.307934 79 35224ft 480kts
02-Mar-17 10:00 36.339402 -113.149930 62 36206ft 476kts
02-Mar-17 10:01 36.395037 -113.000706 61 37118ft 478kts
02-Mar-17 10:02 36.450758 -112.849778 61 37529ft 483kts
02-Mar-17 10:03 36.506640 -112.699194 61 37535ft 479kts
02-Mar-17 10:04 36.562344 -112.547692 61 37540ft 481kts
02-Mar-17 10:05 36.617649 -112.396220 62 37543ft 481kts
02-Mar-17 10:06 36.672769 -112.244412 62 37545ft 481kts
02-Mar-17 10:07 36.727615 -112.092586 62 37552ft 481kts
02-Mar-17 10:08 36.782297 -111.940485 62 37565ft 482kts
02-Mar-17 10:09 36.837035 -111.787397 62 37571ft 481kts
02-Mar-17 10:10 36.890311 -111.637681 62 37577ft 480kts
02-Mar-17 10:11 36.944329 -111.485123 62 37579ft 480kts
02-Mar-17 10:12 36.998091 -111.332532 62 37580ft 480kts
02-Mar-17 10:13 37.051672 -111.179677 62 37580ft 480kts
02-Mar-17 10:14 37.105214 -111.026155 62 37580ft 480kts
02-Mar-17 10:15 37.158356 -110.872997 62 37581ft 479kts
02-Mar-17 10:16 37.211263 -110.719742 62 37583ft 479kts
02-Mar-17 10:17 37.263949 -110.566359 63 37597ft 478kts
02-Mar-17 10:18 37.316329 -110.413027 63 37602ft 478kts
02-Mar-17 10:19 37.368643 -110.259119 63 37603ft 478kts
02-Mar-17 10:20 37.420555 -110.105594 63 37607ft 477kts
02-Mar-17 10:21 37.472268 -109.951862 63 37611ft 478kts
02-Mar-17 10:22 37.523781 -109.797911 63 37614ft 477kts
02-Mar-17 10:23 37.575276 -109.643209 63 37617ft 478kts
02-Mar-17 10:24 37.626477 -109.488564 63 37619ft 478kts
02-Mar-17 10:25 37.677517 -109.333578 63 37617ft 479kts
02-Mar-17 10:26 37.728653 -109.178283 63 37609ft 480kts
02-Mar-17 10:27 37.779256 -109.022416 63 37600ft 480kts
02-Mar-17 10:28 37.837759 -108.871284 53 37594ft 475kts
02-Mar-17 10:29 37.907354 -108.729156 53 37592ft 475kts
02-Mar-17 10:30 37.976504 -108.586750 54 37590ft 474kts
02-Mar-17 10:31 38.045590 -108.444963 53 37589ft 472kts
02-Mar-17 10:32 38.114261 -108.302987 54 37586ft 473kts
02-Mar-17 10:33 38.183018 -108.159974 54 37581ft 473kts
02-Mar-17 10:34 38.251371 -108.017118 54 37587ft 473kts
02-Mar-17 10:35 38.319793 -107.874030 54 37602ft 474kts
02-Mar-17 10:36 38.387717 -107.730553 54 37610ft 474kts
02-Mar-17 10:37 38.455691 -107.586072 54 37611ft 474kts
02-Mar-17 10:38 38.521155 -107.440098 55 37619ft 475kts
02-Mar-17 10:39 38.586354 -107.293857 55 37625ft 474kts
02-Mar-17 10:40 38.651665 -107.147610 55 37631ft 474kts
02-Mar-17 10:41 38.717008 -107.001096 55 37632ft 474kts
02-Mar-17 10:42 38.782164 -106.853744 55 37618ft 475kts
02-Mar-17 10:43 38.846679 -106.706515 55 36357ft 473kts
02-Mar-17 10:44 38.913163 -106.561324 53 33534ft 471kts
02-Mar-17 10:45 38.979164 -106.418458 53 31132ft 456kts
02-Mar-17 10:46 39.031934 -106.303384 53 29438ft 441kts
02-Mar-17 10:47 39.102649 -106.147074 53 27147ft 424kts
02-Mar-17 10:48 39.160223 -106.017359 54 25237ft 411kts
02-Mar-17 10:49 39.206958 -105.911882 54 23663ft 403kts
02-Mar-17 10:50 39.261388 -105.787690 54 21803ft 393kts
02-Mar-17 10:51 39.323424 -105.645796 54 19669ft 383kts
02-Mar-17 10:52 39.365657 -105.549347 54 18964ft 347kts
02-Mar-17 10:53 39.399140 -105.414521 83 16918ft 345kts
02-Mar-17 10:54 39.402437 -105.314774 82 16104ft 330kts
02-Mar-17 10:55 39.408899 -105.177593 82 14688ft 325kts
02-Mar-17 10:56 39.413122 -105.080765 83 13842ft 316kts
02-Mar-17 10:57 39.421540 -104.955408 56 13020ft 272kts
02-Mar-17 10:58 39.461883 -104.899441 38 12503ft 252kts
02-Mar-17 10:59 39.514629 -104.834325 38 11093ft 258kts
02-Mar-17 11:00 39.567465 -104.776325 36 10095ft 245kts
02-Mar-17 11:01 39.619905 -104.721969 36 9089ft 236kts
02-Mar-17 11:02 39.668721 -104.673326 36 8829ft 211kts
02-Mar-17 11:03 39.725027 -104.661656 0 7430ft 196kts
02-Mar-17 11:04 39.773969 -104.661160 0 6495ft 163kts
02-Mar-17 11:05 39.819051 -104.660638 358 5694ft 160kts
02-Mar-17 11:06 39.848197 -104.660903 329 5439ft 25kts
02-Mar-17 11:07 39.855245 -104.662365 0 5439ft 31kts
02-Mar-17 11:08 39.861891 -104.662289 0 5439ft 17kts
02-Mar-17 11:09 39.865044 -104.665173 251 5439ft 24kts
02-Mar-17 11:10 39.864629 -104.671788 204 5439ft 5kts
02-Mar-17 11:11 39.863649 -104.672112 197 5439ft 0kts
02-Mar-17 11:12 39.863649 -104.672112 197 5439ft 0kts

Navigation Log

Ident Type
Flight plan parsing failed, navigation log unavailable